Impacts METAR Board
IDs:

KORD - Chicago/O'Hare Intl, IL, US

Updated at: 2000 UTC 16 Aug 2018
Potential Impact None Slight Moderate High
Time 16/08Z 16/09Z 16/10Z 16/11Z 16/12Z 16/13Z 16/14Z 16/15Z 16/16Z 16/17Z 16/18Z 16/19Z 16/20Z
Temp73 73 73 73 73 74 77 78 79 82 82 82 83
Dewpt68 68 68 68 68 68 68 68 68 68 68 67 67
Altim29.92 29.92 29.92 29.93 29.95 29.96 29.96 29.95 29.96 29.95 29.95 29.94 29.92
VIS10 10 9 7 6 6 9 10 10 10 10 10 10
CIG190 26 20 -- 100 -- 39 22 28 30 50 34 35
CoverOVCOVCBKNSCTBKNSCTBKNBKNBKNBKNBKNBKNOVC
FltCatVFRMVFRMVFRVFRVFRVFRVFRMVFRMVFRMVFRVFRVFRVFR
WX--------BRBR--------------
WDir0120120000360350360100120800
WSpd0 3 3 0 0 0 3 6 6 9 3 4 0
WGst-- -- -- -- -- -- -- -- -- -- -- -- --
Raw hourly METARs
KORD 160751Z 00000KT 10SM SCT016 BKN190 OVC250 23/20 A2992 RMK AO2 SLP127 T02280200
KORD 160851Z 12003KT 10SM SCT012 SCT018 OVC026 23/20 A2992 RMK AO2 SLP125 T02280200 56003
KORD 160951Z 12003KT 9SM FEW012 BKN020 23/20 A2992 RMK AO2 SLP125 T02280200
KORD 161051Z 00000KT 7SM SCT013 SCT020 SCT100 23/20 A2993 RMK AO2 SLP129 T02280200
KORD 161151Z 00000KT 6SM BR FEW013 SCT025 BKN100 23/20 A2995 RMK AO2 SLP136 70001 T02280200 10228 20222 53010
KORD 161251Z 00000KT 6SM BR FEW013 SCT030 SCT100 23/20 A2996 RMK AO2 SLP139 T02330200
KORD 161351Z 36003KT 9SM FEW013 BKN039 25/20 A2996 RMK AO2 SLP139 T02500200
KORD 161451Z 35006KT 10SM BKN022 BKN040 26/20 A2995 RMK AO2 SLP138 T02560200 50002
KORD 161551Z 36006KT 10SM SCT022 BKN028 BKN045 26/20 A2996 RMK AO2 SLP139 T02610200
KORD 161704Z 10009KT 10SM BKN030 BKN050 28/20 A2995 RMK AO2 T02780200
KORD 161751Z 12003KT 10SM SCT030 BKN050 28/20 A2995 RMK AO2 SLP136 T02780200 10283 20228 58004
KORD 161851Z 08004KT 10SM BKN034 BKN042 28/19 A2994 RMK AO2 SLP134 T02780194
KORD 161951Z 00000KT 10SM BKN035 OVC065 28/19 A2992 RMK AO2 SLP127 T02830194



Page loaded:  20:20 UTC  |   01:20 PM Pacific  |   02:20 PM Mountain  |   03:20 PM Central  |   04:20 PM Eastern

 

ADVISORIES

FORECASTS

FORECASTS

OBSERVATIONS

USER TOOLS

ABOUT US